sensor_id;sensor_type;location;lat;lon;timestamp;P1;durP1;ratioP1;P2;durP2;ratioP2
67867;SDS011;54672;46.096;14.470;2023-06-19T00:01:58;18.88;;;9.30;;
67867;SDS011;54672;46.096;14.470;2023-06-19T00:04:24;17.67;;;9.07;;
67867;SDS011;54672;46.096;14.470;2023-06-19T00:06:51;18.02;;;9.20;;
67867;SDS011;54672;46.096;14.470;2023-06-19T00:09:17;14.18;;;8.07;;
67867;SDS011;54672;46.096;14.470;2023-06-19T00:11:43;20.02;;;9.00;;
67867;SDS011;54672;46.096;14.470;2023-06-19T00:14:08;15.52;;;8.45;;
67867;SDS011;54672;46.096;14.470;2023-06-19T00:16:34;15.52;;;8.68;;
67867;SDS011;54672;46.096;14.470;2023-06-19T00:18:59;15.63;;;8.90;;
67867;SDS011;54672;46.096;14.470;2023-06-19T00:21:25;14.85;;;8.65;;
67867;SDS011;54672;46.096;14.470;2023-06-19T00:23:51;18.95;;;9.00;;
67867;SDS011;54672;46.096;14.470;2023-06-19T00:26:17;18.08;;;8.55;;
67867;SDS011;54672;46.096;14.470;2023-06-19T00:28:44;14.82;;;8.52;;
67867;SDS011;54672;46.096;14.470;2023-06-19T00:31:12;13.15;;;7.78;;
67867;SDS011;54672;46.096;14.470;2023-06-19T00:33:39;14.65;;;8.32;;
67867;SDS011;54672;46.096;14.470;2023-06-19T00:36:11;16.67;;;7.82;;
67867;SDS011;54672;46.096;14.470;2023-06-19T00:38:37;13.97;;;7.93;;
67867;SDS011;54672;46.096;14.470;2023-06-19T00:41:03;19.92;;;7.75;;
67867;SDS011;54672;46.096;14.470;2023-06-19T00:43:30;13.25;;;6.63;;
67867;SDS011;54672;46.096;14.470;2023-06-19T00:45:59;16.15;;;7.43;;
67867;SDS011;54672;46.096;14.470;2023-06-19T00:48:26;14.80;;;7.10;;
67867;SDS011;54672;46.096;14.470;2023-06-19T00:50:53;11.93;;;7.32;;
67867;SDS011;54672;46.096;14.470;2023-06-19T00:53:19;11.65;;;6.65;;
67867;SDS011;54672;46.096;14.470;2023-06-19T00:55:46;11.30;;;6.50;;
67867;SDS011;54672;46.096;14.470;2023-06-19T00:58:12;10.70;;;6.10;;
67867;SDS011;54672;46.096;14.470;2023-06-19T01:00:38;13.07;;;6.22;;
67867;SDS011;54672;46.096;14.470;2023-06-19T01:03:03;9.68;;;6.30;;
67867;SDS011;54672;46.096;14.470;2023-06-19T01:05:29;9.15;;;5.60;;
67867;SDS011;54672;46.096;14.470;2023-06-19T01:08:06;9.52;;;5.47;;
67867;SDS011;54672;46.096;14.470;2023-06-19T01:10:43;8.93;;;5.93;;
67867;SDS011;54672;46.096;14.470;2023-06-19T01:13:17;8.68;;;5.40;;
67867;SDS011;54672;46.096;14.470;2023-06-19T01:15:47;9.48;;;5.68;;
67867;SDS011;54672;46.096;14.470;2023-06-19T01:18:13;8.27;;;5.00;;
67867;SDS011;54672;46.096;14.470;2023-06-19T01:20:40;8.40;;;4.93;;
67867;SDS011;54672;46.096;14.470;2023-06-19T01:23:09;9.18;;;5.15;;
67867;SDS011;54672;46.096;14.470;2023-06-19T01:25:36;12.05;;;5.68;;
67867;SDS011;54672;46.096;14.470;2023-06-19T01:28:02;10.52;;;5.13;;
67867;SDS011;54672;46.096;14.470;2023-06-19T01:30:30;8.63;;;5.20;;
67867;SDS011;54672;46.096;14.470;2023-06-19T01:32:58;9.20;;;5.80;;
67867;SDS011;54672;46.096;14.470;2023-06-19T01:35:27;12.45;;;6.00;;
67867;SDS011;54672;46.096;14.470;2023-06-19T01:37:55;9.32;;;5.47;;
67867;SDS011;54672;46.096;14.470;2023-06-19T01:40:21;9.70;;;5.57;;
67867;SDS011;54672;46.096;14.470;2023-06-19T01:42:51;10.88;;;6.03;;
67867;SDS011;54672;46.096;14.470;2023-06-19T01:45:17;10.27;;;5.25;;
67867;SDS011;54672;46.096;14.470;2023-06-19T01:47:43;8.50;;;5.07;;
67867;SDS011;54672;46.096;14.470;2023-06-19T01:50:08;11.77;;;5.90;;
67867;SDS011;54672;46.096;14.470;2023-06-19T01:52:35;11.32;;;5.60;;
67867;SDS011;54672;46.096;14.470;2023-06-19T01:55:01;10.13;;;5.90;;
67867;SDS011;54672;46.096;14.470;2023-06-19T01:57:27;10.98;;;5.70;;
67867;SDS011;54672;46.096;14.470;2023-06-19T01:59:53;11.50;;;5.80;;
67867;SDS011;54672;46.096;14.470;2023-06-19T02:02:18;8.68;;;5.28;;
67867;SDS011;54672;46.096;14.470;2023-06-19T02:04:43;9.82;;;5.38;;
67867;SDS011;54672;46.096;14.470;2023-06-19T02:07:09;9.52;;;5.90;;
67867;SDS011;54672;46.096;14.470;2023-06-19T02:09:35;8.75;;;5.30;;
67867;SDS011;54672;46.096;14.470;2023-06-19T02:12:01;9.65;;;5.63;;
67867;SDS011;54672;46.096;14.470;2023-06-19T02:14:26;10.00;;;5.63;;
67867;SDS011;54672;46.096;14.470;2023-06-19T02:16:52;10.60;;;6.00;;
67867;SDS011;54672;46.096;14.470;2023-06-19T02:19:17;10.80;;;5.75;;
67867;SDS011;54672;46.096;14.470;2023-06-19T02:21:42;10.15;;;6.05;;
67867;SDS011;54672;46.096;14.470;2023-06-19T02:24:08;8.82;;;5.50;;
67867;SDS011;54672;46.096;14.470;2023-06-19T02:26:33;10.10;;;6.00;;
67867;SDS011;54672;46.096;14.470;2023-06-19T02:28:59;14.68;;;6.35;;
67867;SDS011;54672;46.096;14.470;2023-06-19T02:31:24;9.23;;;5.85;;
67867;SDS011;54672;46.096;14.470;2023-06-19T02:33:50;11.75;;;5.97;;
67867;SDS011;54672;46.096;14.470;2023-06-19T02:36:16;10.82;;;6.38;;
67867;SDS011;54672;46.096;14.470;2023-06-19T02:38:47;11.88;;;6.25;;
67867;SDS011;54672;46.096;14.470;2023-06-19T02:41:15;11.35;;;6.47;;
67867;SDS011;54672;46.096;14.470;2023-06-19T02:43:41;10.48;;;5.97;;
67867;SDS011;54672;46.096;14.470;2023-06-19T02:46:07;14.15;;;6.93;;
67867;SDS011;54672;46.096;14.470;2023-06-19T02:48:33;9.07;;;5.72;;
67867;SDS011;54672;46.096;14.470;2023-06-19T02:50:58;9.25;;;5.88;;
67867;SDS011;54672;46.096;14.470;2023-06-19T02:53:24;11.18;;;6.22;;
67867;SDS011;54672;46.096;14.470;2023-06-19T02:55:49;9.00;;;5.43;;
67867;SDS011;54672;46.096;14.470;2023-06-19T02:58:14;10.40;;;6.05;;
67867;SDS011;54672;46.096;14.470;2023-06-19T03:00:40;12.52;;;6.88;;
67867;SDS011;54672;46.096;14.470;2023-06-19T03:03:05;13.50;;;6.45;;
67867;SDS011;54672;46.096;14.470;2023-06-19T03:05:30;10.07;;;6.72;;
67867;SDS011;54672;46.096;14.470;2023-06-19T03:07:56;13.48;;;6.60;;
67867;SDS011;54672;46.096;14.470;2023-06-19T03:10:21;11.60;;;6.65;;
67867;SDS011;54672;46.096;14.470;2023-06-19T03:12:47;15.65;;;6.90;;
67867;SDS011;54672;46.096;14.470;2023-06-19T03:15:12;12.48;;;6.55;;
67867;SDS011;54672;46.096;14.470;2023-06-19T03:17:38;12.45;;;6.40;;
67867;SDS011;54672;46.096;14.470;2023-06-19T03:20:03;12.95;;;6.97;;
67867;SDS011;54672;46.096;14.470;2023-06-19T03:22:30;11.68;;;7.07;;
67867;SDS011;54672;46.096;14.470;2023-06-19T03:24:56;11.23;;;6.43;;
67867;SDS011;54672;46.096;14.470;2023-06-19T03:27:22;11.45;;;6.63;;
67867;SDS011;54672;46.096;14.470;2023-06-19T03:29:49;11.40;;;6.28;;
67867;SDS011;54672;46.096;14.470;2023-06-19T03:32:15;12.63;;;6.32;;
67867;SDS011;54672;46.096;14.470;2023-06-19T03:34:41;11.90;;;6.45;;
67867;SDS011;54672;46.096;14.470;2023-06-19T03:37:07;12.63;;;6.25;;
67867;SDS011;54672;46.096;14.470;2023-06-19T03:39:32;11.63;;;6.65;;
67867;SDS011;54672;46.096;14.470;2023-06-19T03:41:57;13.70;;;6.80;;
67867;SDS011;54672;46.096;14.470;2023-06-19T03:44:23;10.93;;;6.45;;
67867;SDS011;54672;46.096;14.470;2023-06-19T03:46:48;11.85;;;5.95;;
67867;SDS011;54672;46.096;14.470;2023-06-19T03:49:15;15.43;;;6.07;;
67867;SDS011;54672;46.096;14.470;2023-06-19T03:51:40;9.15;;;5.95;;
67867;SDS011;54672;46.096;14.470;2023-06-19T03:54:06;11.70;;;6.22;;
67867;SDS011;54672;46.096;14.470;2023-06-19T03:56:31;9.15;;;5.72;;
67867;SDS011;54672;46.096;14.470;2023-06-19T03:58:56;9.70;;;6.25;;
67867;SDS011;54672;46.096;14.470;2023-06-19T04:01:22;9.82;;;6.43;;
67867;SDS011;54672;46.096;14.470;2023-06-19T04:03:47;10.45;;;5.80;;
67867;SDS011;54672;46.096;14.470;2023-06-19T04:06:13;10.15;;;6.18;;
67867;SDS011;54672;46.096;14.470;2023-06-19T04:08:38;11.27;;;5.93;;
67867;SDS011;54672;46.096;14.470;2023-06-19T04:11:03;10.70;;;6.20;;
67867;SDS011;54672;46.096;14.470;2023-06-19T04:13:29;9.15;;;6.38;;
67867;SDS011;54672;46.096;14.470;2023-06-19T04:15:54;13.50;;;7.28;;
67867;SDS011;54672;46.096;14.470;2023-06-19T04:18:20;11.00;;;6.38;;
67867;SDS011;54672;46.096;14.470;2023-06-19T04:20:45;10.23;;;6.03;;
67867;SDS011;54672;46.096;14.470;2023-06-19T04:23:10;10.85;;;6.72;;
67867;SDS011;54672;46.096;14.470;2023-06-19T04:25:36;9.60;;;6.30;;
67867;SDS011;54672;46.096;14.470;2023-06-19T04:28:02;11.52;;;6.50;;
67867;SDS011;54672;46.096;14.470;2023-06-19T04:30:30;11.13;;;6.35;;
67867;SDS011;54672;46.096;14.470;2023-06-19T04:32:57;11.48;;;6.55;;
67867;SDS011;54672;46.096;14.470;2023-06-19T04:35:22;13.57;;;6.75;;
67867;SDS011;54672;46.096;14.470;2023-06-19T04:37:48;14.10;;;6.72;;
67867;SDS011;54672;46.096;14.470;2023-06-19T04:40:14;9.52;;;6.38;;
67867;SDS011;54672;46.096;14.470;2023-06-19T04:42:40;12.98;;;6.78;;
67867;SDS011;54672;46.096;14.470;2023-06-19T04:45:05;10.93;;;6.60;;
67867;SDS011;54672;46.096;14.470;2023-06-19T04:47:34;10.85;;;5.82;;
67867;SDS011;54672;46.096;14.470;2023-06-19T04:50:00;12.80;;;6.57;;
67867;SDS011;54672;46.096;14.470;2023-06-19T04:52:25;11.98;;;7.13;;
67867;SDS011;54672;46.096;14.470;2023-06-19T04:54:51;9.32;;;6.05;;
67867;SDS011;54672;46.096;14.470;2023-06-19T04:57:16;8.30;;;5.57;;
67867;SDS011;54672;46.096;14.470;2023-06-19T04:59:42;10.68;;;6.25;;
67867;SDS011;54672;46.096;14.470;2023-06-19T05:02:09;8.50;;;5.85;;
67867;SDS011;54672;46.096;14.470;2023-06-19T05:04:35;8.10;;;5.85;;
67867;SDS011;54672;46.096;14.470;2023-06-19T05:07:01;7.70;;;5.80;;
67867;SDS011;54672;46.096;14.470;2023-06-19T05:09:26;9.18;;;5.45;;
67867;SDS011;54672;46.096;14.470;2023-06-19T05:11:52;8.35;;;5.78;;
67867;SDS011;54672;46.096;14.470;2023-06-19T05:14:17;9.23;;;6.63;;
67867;SDS011;54672;46.096;14.470;2023-06-19T05:16:43;10.98;;;6.25;;
67867;SDS011;54672;46.096;14.470;2023-06-19T05:19:09;13.20;;;7.88;;
67867;SDS011;54672;46.096;14.470;2023-06-19T05:21:34;12.82;;;6.75;;
67867;SDS011;54672;46.096;14.470;2023-06-19T05:24:00;10.45;;;6.93;;
67867;SDS011;54672;46.096;14.470;2023-06-19T05:26:26;12.23;;;6.85;;
67867;SDS011;54672;46.096;14.470;2023-06-19T05:28:52;10.52;;;6.80;;
67867;SDS011;54672;46.096;14.470;2023-06-19T05:31:17;11.52;;;6.18;;
67867;SDS011;54672;46.096;14.470;2023-06-19T05:33:46;9.95;;;6.13;;
67867;SDS011;54672;46.096;14.470;2023-06-19T05:36:11;10.80;;;6.28;;
67867;SDS011;54672;46.096;14.470;2023-06-19T05:38:36;8.57;;;6.40;;
67867;SDS011;54672;46.096;14.470;2023-06-19T05:41:02;9.00;;;6.80;;
67867;SDS011;54672;46.096;14.470;2023-06-19T05:43:28;10.45;;;6.22;;
67867;SDS011;54672;46.096;14.470;2023-06-19T05:45:54;8.30;;;6.30;;
67867;SDS011;54672;46.096;14.470;2023-06-19T05:48:21;9.80;;;6.65;;
67867;SDS011;54672;46.096;14.470;2023-06-19T05:50:46;10.40;;;6.35;;
67867;SDS011;54672;46.096;14.470;2023-06-19T05:53:12;10.38;;;6.18;;
67867;SDS011;54672;46.096;14.470;2023-06-19T05:55:37;13.10;;;6.53;;
67867;SDS011;54672;46.096;14.470;2023-06-19T05:58:03;9.80;;;5.97;;
67867;SDS011;54672;46.096;14.470;2023-06-19T06:00:29;11.77;;;6.03;;
67867;SDS011;54672;46.096;14.470;2023-06-19T06:02:56;11.30;;;6.15;;
67867;SDS011;54672;46.096;14.470;2023-06-19T06:05:24;9.73;;;5.90;;
67867;SDS011;54672;46.096;14.470;2023-06-19T06:07:50;12.77;;;5.78;;
67867;SDS011;54672;46.096;14.470;2023-06-19T06:10:15;13.52;;;5.82;;
67867;SDS011;54672;46.096;14.470;2023-06-19T06:12:42;10.23;;;5.95;;
67867;SDS011;54672;46.096;14.470;2023-06-19T06:15:07;13.52;;;5.80;;
67867;SDS011;54672;46.096;14.470;2023-06-19T06:17:33;9.90;;;5.40;;
67867;SDS011;54672;46.096;14.470;2023-06-19T06:19:58;8.65;;;5.63;;
67867;SDS011;54672;46.096;14.470;2023-06-19T06:22:24;7.32;;;5.18;;
67867;SDS011;54672;46.096;14.470;2023-06-19T06:24:49;6.15;;;5.03;;
67867;SDS011;54672;46.096;14.470;2023-06-19T06:27:15;8.63;;;5.10;;
67867;SDS011;54672;46.096;14.470;2023-06-19T06:29:41;6.10;;;5.05;;
67867;SDS011;54672;46.096;14.470;2023-06-19T06:32:06;5.95;;;4.63;;
67867;SDS011;54672;46.096;14.470;2023-06-19T06:34:35;7.63;;;4.97;;
67867;SDS011;54672;46.096;14.470;2023-06-19T06:37:01;10.10;;;5.82;;
67867;SDS011;54672;46.096;14.470;2023-06-19T06:39:27;7.35;;;5.53;;
67867;SDS011;54672;46.096;14.470;2023-06-19T06:41:52;8.52;;;5.03;;
67867;SDS011;54672;46.096;14.470;2023-06-19T06:44:18;7.13;;;4.85;;
67867;SDS011;54672;46.096;14.470;2023-06-19T06:46:43;11.30;;;5.57;;
67867;SDS011;54672;46.096;14.470;2023-06-19T06:49:08;12.30;;;5.50;;
67867;SDS011;54672;46.096;14.470;2023-06-19T06:51:34;11.68;;;5.47;;
67867;SDS011;54672;46.096;14.470;2023-06-19T06:53:59;7.10;;;5.15;;
67867;SDS011;54672;46.096;14.470;2023-06-19T06:56:25;10.40;;;5.47;;
67867;SDS011;54672;46.096;14.470;2023-06-19T06:58:50;8.73;;;5.47;;
67867;SDS011;54672;46.096;14.470;2023-06-19T07:01:16;10.98;;;5.05;;
67867;SDS011;54672;46.096;14.470;2023-06-19T07:03:41;10.85;;;5.68;;
67867;SDS011;54672;46.096;14.470;2023-06-19T07:06:07;10.55;;;5.72;;
67867;SDS011;54672;46.096;14.470;2023-06-19T07:08:32;10.65;;;5.57;;
67867;SDS011;54672;46.096;14.470;2023-06-19T07:10:58;13.40;;;5.43;;
67867;SDS011;54672;46.096;14.470;2023-06-19T07:13:24;10.73;;;5.30;;
67867;SDS011;54672;46.096;14.470;2023-06-19T07:15:50;7.68;;;4.82;;
67867;SDS011;54672;46.096;14.470;2023-06-19T07:18:15;12.70;;;5.63;;
67867;SDS011;54672;46.096;14.470;2023-06-19T07:20:41;10.35;;;5.70;;
67867;SDS011;54672;46.096;14.470;2023-06-19T07:23:06;9.68;;;5.35;;
67867;SDS011;54672;46.096;14.470;2023-06-19T07:25:32;9.60;;;5.70;;
67867;SDS011;54672;46.096;14.470;2023-06-19T07:27:59;10.25;;;5.22;;
67867;SDS011;54672;46.096;14.470;2023-06-19T07:30:25;9.20;;;4.95;;
67867;SDS011;54672;46.096;14.470;2023-06-19T07:32:51;7.13;;;5.40;;
67867;SDS011;54672;46.096;14.470;2023-06-19T07:35:16;8.85;;;5.20;;
67867;SDS011;54672;46.096;14.470;2023-06-19T07:37:42;10.90;;;5.72;;
67867;SDS011;54672;46.096;14.470;2023-06-19T07:40:08;11.80;;;5.82;;
67867;SDS011;54672;46.096;14.470;2023-06-19T07:42:33;11.63;;;5.63;;
67867;SDS011;54672;46.096;14.470;2023-06-19T07:44:59;9.38;;;4.97;;
67867;SDS011;54672;46.096;14.470;2023-06-19T07:47:26;12.57;;;5.63;;
67867;SDS011;54672;46.096;14.470;2023-06-19T07:49:52;9.68;;;5.18;;
67867;SDS011;54672;46.096;14.470;2023-06-19T07:52:17;10.40;;;6.05;;
67867;SDS011;54672;46.096;14.470;2023-06-19T07:54:53;11.95;;;5.47;;
67867;SDS011;54672;46.096;14.470;2023-06-19T07:57:19;7.90;;;5.60;;
67867;SDS011;54672;46.096;14.470;2023-06-19T07:59:45;10.70;;;5.30;;
67867;SDS011;54672;46.096;14.470;2023-06-19T08:02:11;8.40;;;5.40;;
67867;SDS011;54672;46.096;14.470;2023-06-19T08:04:37;8.52;;;5.50;;
67867;SDS011;54672;46.096;14.470;2023-06-19T08:07:02;10.27;;;5.07;;
67867;SDS011;54672;46.096;14.470;2023-06-19T08:09:28;11.68;;;5.57;;
67867;SDS011;54672;46.096;14.470;2023-06-19T08:11:54;9.98;;;5.10;;
67867;SDS011;54672;46.096;14.470;2023-06-19T08:14:19;9.05;;;5.60;;
67867;SDS011;54672;46.096;14.470;2023-06-19T08:16:45;6.90;;;4.90;;
67867;SDS011;54672;46.096;14.470;2023-06-19T08:19:10;8.52;;;5.13;;
67867;SDS011;54672;46.096;14.470;2023-06-19T08:21:36;8.52;;;5.75;;
67867;SDS011;54672;46.096;14.470;2023-06-19T08:24:01;9.18;;;4.93;;
67867;SDS011;54672;46.096;14.470;2023-06-19T08:26:27;7.22;;;5.28;;
67867;SDS011;54672;46.096;14.470;2023-06-19T08:28:53;7.53;;;4.85;;
67867;SDS011;54672;46.096;14.470;2023-06-19T08:31:19;8.60;;;5.28;;
67867;SDS011;54672;46.096;14.470;2023-06-19T08:33:46;9.02;;;4.88;;
67867;SDS011;54672;46.096;14.470;2023-06-19T08:36:13;8.35;;;5.13;;
67867;SDS011;54672;46.096;14.470;2023-06-19T08:38:39;9.05;;;4.90;;
67867;SDS011;54672;46.096;14.470;2023-06-19T08:41:05;10.02;;;5.22;;
67867;SDS011;54672;46.096;14.470;2023-06-19T08:43:30;9.43;;;5.45;;
67867;SDS011;54672;46.096;14.470;2023-06-19T08:46:03;11.75;;;5.57;;
67867;SDS011;54672;46.096;14.470;2023-06-19T08:48:35;9.65;;;5.35;;
67867;SDS011;54672;46.096;14.470;2023-06-19T08:51:01;7.07;;;4.32;;
67867;SDS011;54672;46.096;14.470;2023-06-19T08:53:29;8.38;;;5.20;;
67867;SDS011;54672;46.096;14.470;2023-06-19T08:55:54;9.77;;;5.05;;
67867;SDS011;54672;46.096;14.470;2023-06-19T08:58:22;10.05;;;4.88;;
67867;SDS011;54672;46.096;14.470;2023-06-19T09:00:49;7.68;;;5.30;;
67867;SDS011;54672;46.096;14.470;2023-06-19T09:03:19;8.88;;;4.55;;
67867;SDS011;54672;46.096;14.470;2023-06-19T09:05:46;5.85;;;4.50;;
67867;SDS011;54672;46.096;14.470;2023-06-19T09:08:15;11.70;;;5.10;;
67867;SDS011;54672;46.096;14.470;2023-06-19T09:10:42;9.57;;;5.07;;
67867;SDS011;54672;46.096;14.470;2023-06-19T09:13:07;6.57;;;4.60;;
67867;SDS011;54672;46.096;14.470;2023-06-19T09:15:37;8.55;;;5.20;;
67867;SDS011;54672;46.096;14.470;2023-06-19T09:18:10;5.38;;;4.43;;
67867;SDS011;54672;46.096;14.470;2023-06-19T09:20:40;5.10;;;4.03;;
67867;SDS011;54672;46.096;14.470;2023-06-19T09:23:09;6.93;;;4.50;;
67867;SDS011;54672;46.096;14.470;2023-06-19T09:25:54;6.00;;;4.35;;
67867;SDS011;54672;46.096;14.470;2023-06-19T09:28:27;6.25;;;4.30;;
67867;SDS011;54672;46.096;14.470;2023-06-19T09:30:53;6.10;;;4.40;;
67867;SDS011;54672;46.096;14.470;2023-06-19T09:33:20;6.22;;;4.80;;
67867;SDS011;54672;46.096;14.470;2023-06-19T09:35:45;8.05;;;4.88;;
67867;SDS011;54672;46.096;14.470;2023-06-19T09:38:12;5.72;;;4.70;;
67867;SDS011;54672;46.096;14.470;2023-06-19T09:40:38;5.65;;;4.35;;
67867;SDS011;54672;46.096;14.470;2023-06-19T09:43:04;5.90;;;4.82;;
67867;SDS011;54672;46.096;14.470;2023-06-19T09:45:32;6.00;;;4.47;;
67867;SDS011;54672;46.096;14.470;2023-06-19T09:47:59;6.22;;;5.00;;
67867;SDS011;54672;46.096;14.470;2023-06-19T09:50:24;6.68;;;5.00;;
67867;SDS011;54672;46.096;14.470;2023-06-19T09:52:52;6.28;;;5.18;;
67867;SDS011;54672;46.096;14.470;2023-06-19T09:55:19;6.95;;;4.47;;
67867;SDS011;54672;46.096;14.470;2023-06-19T09:57:49;7.25;;;4.93;;
67867;SDS011;54672;46.096;14.470;2023-06-19T10:00:15;8.13;;;4.70;;
67867;SDS011;54672;46.096;14.470;2023-06-19T10:02:46;6.93;;;5.17;;
67867;SDS011;54672;46.096;14.470;2023-06-19T10:05:13;5.88;;;4.68;;
67867;SDS011;54672;46.096;14.470;2023-06-19T10:07:43;5.30;;;4.43;;
67867;SDS011;54672;46.096;14.470;2023-06-19T10:10:12;6.70;;;4.20;;
67867;SDS011;54672;46.096;14.470;2023-06-19T10:12:48;6.10;;;4.50;;
67867;SDS011;54672;46.096;14.470;2023-06-19T10:15:17;7.88;;;4.60;;
67867;SDS011;54672;46.096;14.470;2023-06-19T10:25:27;5.63;;;4.45;;
67867;SDS011;54672;46.096;14.470;2023-06-19T10:27:54;5.53;;;4.32;;
67867;SDS011;54672;46.096;14.470;2023-06-19T10:30:20;7.68;;;4.70;;
67867;SDS011;54672;46.096;14.470;2023-06-19T10:32:46;5.63;;;4.22;;
67867;SDS011;54672;46.096;14.470;2023-06-19T10:35:13;6.03;;;4.72;;
67867;SDS011;54672;46.096;14.470;2023-06-19T10:37:39;5.97;;;4.75;;
67867;SDS011;54672;46.096;14.470;2023-06-19T10:40:06;5.78;;;4.40;;
67867;SDS011;54672;46.096;14.470;2023-06-19T10:42:35;6.78;;;4.65;;
67867;SDS011;54672;46.096;14.470;2023-06-19T10:45:04;9.20;;;5.75;;
67867;SDS011;54672;46.096;14.470;2023-06-19T10:47:35;6.82;;;4.85;;
67867;SDS011;54672;46.096;14.470;2023-06-19T10:50:03;7.18;;;5.80;;
67867;SDS011;54672;46.096;14.470;2023-06-19T10:52:29;7.00;;;5.00;;
67867;SDS011;54672;46.096;14.470;2023-06-19T10:54:55;6.30;;;5.13;;
67867;SDS011;54672;46.096;14.470;2023-06-19T10:57:30;6.88;;;5.00;;
67867;SDS011;54672;46.096;14.470;2023-06-19T10:59:56;7.05;;;4.90;;
67867;SDS011;54672;46.096;14.470;2023-06-19T11:02:23;8.05;;;4.90;;
67867;SDS011;54672;46.096;14.470;2023-06-19T11:04:51;8.23;;;4.97;;
67867;SDS011;54672;46.096;14.470;2023-06-19T11:07:18;8.85;;;5.82;;
67867;SDS011;54672;46.096;14.470;2023-06-19T11:09:43;7.03;;;5.25;;
67867;SDS011;54672;46.096;14.470;2023-06-19T11:12:09;7.75;;;5.18;;
67867;SDS011;54672;46.096;14.470;2023-06-19T11:14:35;8.77;;;5.18;;
67867;SDS011;54672;46.096;14.470;2023-06-19T11:17:05;5.50;;;4.60;;
67867;SDS011;54672;46.096;14.470;2023-06-19T11:19:31;6.53;;;4.93;;
67867;SDS011;54672;46.096;14.470;2023-06-19T11:21:58;6.55;;;5.30;;
67867;SDS011;54672;46.096;14.470;2023-06-19T11:24:28;6.35;;;4.80;;
67867;SDS011;54672;46.096;14.470;2023-06-19T11:26:55;5.78;;;4.88;;
67867;SDS011;54672;46.096;14.470;2023-06-19T11:29:22;12.82;;;4.97;;
67867;SDS011;54672;46.096;14.470;2023-06-19T11:32:14;7.43;;;5.05;;
67867;SDS011;54672;46.096;14.470;2023-06-19T11:34:40;6.25;;;5.22;;
67867;SDS011;54672;46.096;14.470;2023-06-19T11:37:15;7.40;;;5.45;;
67867;SDS011;54672;46.096;14.470;2023-06-19T11:39:46;6.72;;;5.38;;
67867;SDS011;54672;46.096;14.470;2023-06-19T11:42:12;6.88;;;5.30;;
67867;SDS011;54672;46.096;14.470;2023-06-19T11:47:31;7.60;;;5.43;;
67867;SDS011;54672;46.096;14.470;2023-06-19T11:52:28;7.80;;;5.28;;
67867;SDS011;54672;46.096;14.470;2023-06-19T11:54:54;7.65;;;5.53;;
67867;SDS011;54672;46.096;14.470;2023-06-19T11:57:19;6.68;;;5.25;;
67867;SDS011;54672;46.096;14.470;2023-06-19T11:59:45;8.27;;;5.38;;
67867;SDS011;54672;46.096;14.470;2023-06-19T12:02:10;6.85;;;5.50;;
67867;SDS011;54672;46.096;14.470;2023-06-19T12:04:37;7.65;;;5.80;;
67867;SDS011;54672;46.096;14.470;2023-06-19T12:07:02;7.35;;;5.43;;
67867;SDS011;54672;46.096;14.470;2023-06-19T12:09:29;7.88;;;5.30;;
67867;SDS011;54672;46.096;14.470;2023-06-19T12:11:55;8.30;;;5.47;;
67867;SDS011;54672;46.096;14.470;2023-06-19T12:14:20;8.10;;;5.78;;
67867;SDS011;54672;46.096;14.470;2023-06-19T12:16:46;8.80;;;5.75;;
67867;SDS011;54672;46.096;14.470;2023-06-19T12:19:12;6.22;;;5.40;;
67867;SDS011;54672;46.096;14.470;2023-06-19T12:21:37;7.50;;;5.60;;
67867;SDS011;54672;46.096;14.470;2023-06-19T12:24:03;7.22;;;5.50;;
67867;SDS011;54672;46.096;14.470;2023-06-19T12:26:28;6.25;;;5.43;;
67867;SDS011;54672;46.096;14.470;2023-06-19T12:28:54;7.78;;;5.75;;
67867;SDS011;54672;46.096;14.470;2023-06-19T12:31:19;9.15;;;5.63;;
67867;SDS011;54672;46.096;14.470;2023-06-19T12:33:44;7.85;;;5.35;;
67867;SDS011;54672;46.096;14.470;2023-06-19T12:36:12;8.52;;;5.65;;
67867;SDS011;54672;46.096;14.470;2023-06-19T12:38:39;7.03;;;5.80;;
67867;SDS011;54672;46.096;14.470;2023-06-19T12:41:05;8.35;;;5.22;;
67867;SDS011;54672;46.096;14.470;2023-06-19T12:43:30;7.35;;;5.90;;
67867;SDS011;54672;46.096;14.470;2023-06-19T12:45:59;8.45;;;5.45;;
67867;SDS011;54672;46.096;14.470;2023-06-19T12:48:25;7.57;;;5.78;;
67867;SDS011;54672;46.096;14.470;2023-06-19T12:50:51;7.18;;;5.90;;
67867;SDS011;54672;46.096;14.470;2023-06-19T12:53:16;7.07;;;5.47;;
67867;SDS011;54672;46.096;14.470;2023-06-19T12:55:42;7.15;;;5.60;;
67867;SDS011;54672;46.096;14.470;2023-06-19T12:58:08;7.32;;;5.53;;
67867;SDS011;54672;46.096;14.470;2023-06-19T13:00:33;6.60;;;5.40;;
67867;SDS011;54672;46.096;14.470;2023-06-19T13:02:59;9.85;;;5.78;;
67867;SDS011;54672;46.096;14.470;2023-06-19T13:05:24;8.18;;;5.70;;
67867;SDS011;54672;46.096;14.470;2023-06-19T13:07:50;6.85;;;5.70;;
67867;SDS011;54672;46.096;14.470;2023-06-19T13:10:15;7.30;;;5.97;;
67867;SDS011;54672;46.096;14.470;2023-06-19T13:12:41;6.35;;;5.20;;
67867;SDS011;54672;46.096;14.470;2023-06-19T13:15:06;7.57;;;5.15;;
67867;SDS011;54672;46.096;14.470;2023-06-19T13:17:32;7.20;;;5.38;;
67867;SDS011;54672;46.096;14.470;2023-06-19T13:19:57;6.95;;;5.65;;
67867;SDS011;54672;46.096;14.470;2023-06-19T13:22:24;6.55;;;5.10;;
67867;SDS011;54672;46.096;14.470;2023-06-19T13:24:50;7.82;;;5.68;;
67867;SDS011;54672;46.096;14.470;2023-06-19T13:27:16;8.40;;;5.80;;
67867;SDS011;54672;46.096;14.470;2023-06-19T13:29:41;5.90;;;4.90;;
67867;SDS011;54672;46.096;14.470;2023-06-19T13:32:07;6.70;;;5.13;;
67867;SDS011;54672;46.096;14.470;2023-06-19T13:34:32;7.38;;;5.72;;
67867;SDS011;54672;46.096;14.470;2023-06-19T13:36:58;8.52;;;5.35;;
67867;SDS011;54672;46.096;14.470;2023-06-19T13:39:23;9.43;;;5.90;;
67867;SDS011;54672;46.096;14.470;2023-06-19T13:41:49;7.07;;;5.63;;
67867;SDS011;54672;46.096;14.470;2023-06-19T13:44:14;6.35;;;5.28;;
67867;SDS011;54672;46.096;14.470;2023-06-19T13:46:40;7.43;;;5.40;;
67867;SDS011;54672;46.096;14.470;2023-06-19T13:49:05;7.88;;;5.70;;
67867;SDS011;54672;46.096;14.470;2023-06-19T13:51:30;7.30;;;5.65;;
67867;SDS011;54672;46.096;14.470;2023-06-19T13:53:56;7.05;;;5.35;;
67867;SDS011;54672;46.096;14.470;2023-06-19T13:56:21;6.63;;;5.47;;
67867;SDS011;54672;46.096;14.470;2023-06-19T13:58:48;7.05;;;5.40;;
67867;SDS011;54672;46.096;14.470;2023-06-19T14:01:13;6.82;;;5.50;;
67867;SDS011;54672;46.096;14.470;2023-06-19T14:03:39;6.60;;;5.55;;
67867;SDS011;54672;46.096;14.470;2023-06-19T14:06:05;8.90;;;5.70;;
67867;SDS011;54672;46.096;14.470;2023-06-19T14:08:30;7.07;;;5.78;;
67867;SDS011;54672;46.096;14.470;2023-06-19T14:10:56;9.60;;;6.10;;
67867;SDS011;54672;46.096;14.470;2023-06-19T14:13:21;8.27;;;5.53;;
67867;SDS011;54672;46.096;14.470;2023-06-19T14:15:47;6.20;;;5.28;;
67867;SDS011;54672;46.096;14.470;2023-06-19T14:18:12;6.68;;;5.80;;
67867;SDS011;54672;46.096;14.470;2023-06-19T14:20:38;7.88;;;5.50;;
67867;SDS011;54672;46.096;14.470;2023-06-19T14:23:03;6.85;;;5.40;;
67867;SDS011;54672;46.096;14.470;2023-06-19T14:25:29;7.40;;;5.30;;
67867;SDS011;54672;46.096;14.470;2023-06-19T14:27:54;6.65;;;5.38;;
67867;SDS011;54672;46.096;14.470;2023-06-19T14:30:19;7.88;;;5.40;;
67867;SDS011;54672;46.096;14.470;2023-06-19T14:32:45;6.57;;;5.20;;
67867;SDS011;54672;46.096;14.470;2023-06-19T14:35:10;7.13;;;5.50;;
67867;SDS011;54672;46.096;14.470;2023-06-19T14:37:36;9.80;;;6.00;;